createdAt,value
2019-02-07T00:01:23.448Z,11.97
2019-02-07T00:03:50.387Z,11.23
2019-02-07T00:06:17.355Z,12.67
2019-02-07T00:08:44.289Z,11.87
2019-02-07T00:11:11.224Z,12.10
2019-02-07T00:13:38.177Z,12.23
2019-02-07T00:16:05.097Z,11.97
2019-02-07T00:18:32.021Z,11.93
2019-02-07T00:20:58.988Z,12.27
2019-02-07T00:23:26.236Z,11.27
2019-02-07T00:25:53.181Z,12.40
2019-02-07T00:28:20.137Z,11.90
2019-02-07T00:30:47.091Z,12.63
2019-02-07T00:33:14.031Z,12.93
2019-02-07T00:35:40.981Z,12.37
2019-02-07T00:38:07.929Z,11.87
2019-02-07T00:40:34.857Z,12.53
2019-02-07T00:43:01.806Z,12.40
2019-02-07T00:45:28.747Z,12.23
2019-02-07T00:47:55.678Z,12.13
2019-02-07T00:50:22.627Z,12.60
2019-02-07T00:52:49.568Z,13.80
2019-02-07T00:55:16.538Z,12.70
2019-02-07T00:57:43.496Z,14.03
2019-02-07T01:00:13.939Z,13.20
2019-02-07T01:02:40.863Z,13.07
2019-02-07T01:05:08.508Z,11.73
2019-02-07T01:07:35.431Z,13.07
2019-02-07T01:10:03.774Z,13.57
2019-02-07T01:12:30.724Z,12.33
2019-02-07T01:15:02.262Z,13.50
2019-02-07T01:17:24.619Z,13.93
2019-02-07T01:19:51.569Z,12.97
2019-02-07T01:22:18.492Z,14.20
2019-02-07T01:24:45.704Z,13.20
2019-02-07T01:27:12.653Z,13.93
2019-02-07T01:29:39.597Z,13.77
2019-02-07T01:32:06.526Z,12.77
2019-02-07T01:34:33.478Z,13.67
2019-02-07T01:37:00.398Z,12.80
2019-02-07T01:39:27.332Z,14.23
2019-02-07T01:41:54.270Z,13.67
2019-02-07T01:44:21.199Z,13.63
2019-02-07T01:46:48.136Z,14.50
2019-02-07T01:49:15.128Z,13.27
2019-02-07T01:51:42.064Z,12.00
2019-02-07T01:54:09.000Z,12.57
2019-02-07T01:56:35.947Z,13.80
2019-02-07T01:59:02.891Z,12.90
2019-02-07T02:01:29.820Z,14.47
2019-02-07T02:03:56.776Z,13.90
2019-02-07T02:06:23.691Z,11.60
2019-02-07T02:08:50.883Z,14.00
2019-02-07T02:11:17.832Z,13.43
2019-02-07T02:13:44.758Z,12.93
2019-02-07T02:16:11.681Z,14.07
2019-02-07T02:18:38.616Z,13.07
2019-02-07T02:21:05.541Z,13.63
2019-02-07T02:23:32.477Z,13.07
2019-02-07T02:26:00.072Z,13.37
2019-02-07T02:28:27.003Z,13.37
2019-02-07T02:30:53.943Z,14.13
2019-02-07T02:33:20.893Z,13.63
2019-02-07T02:35:47.826Z,13.10
2019-02-07T02:38:14.758Z,13.90
2019-02-07T02:40:41.710Z,12.90
2019-02-07T02:43:08.627Z,13.17
2019-02-07T02:45:37.867Z,13.60
2019-02-07T02:48:02.509Z,13.93
2019-02-07T02:50:29.428Z,13.07
2019-02-07T02:52:56.355Z,14.47
2019-02-07T02:55:27.866Z,13.63
2019-02-07T02:57:54.809Z,13.57
2019-02-07T03:00:24.208Z,13.43
2019-02-07T03:03:15.703Z,13.27
2019-02-07T03:05:56.615Z,13.67
2019-02-07T03:08:47.231Z,14.80
2019-02-07T03:11:23.896Z,13.30
2019-02-07T03:14:09.872Z,13.43
2019-02-07T03:16:42.528Z,13.30
2019-02-07T03:19:34.145Z,13.57
2019-02-07T03:22:20.500Z,14.20
2019-02-07T03:24:53.281Z,13.53
2019-02-07T03:27:33.649Z,14.30
2019-02-07T03:30:24.086Z,13.63
2019-02-07T03:33:01.330Z,13.30
2019-02-07T03:35:48.195Z,12.93
2019-02-07T03:38:28.917Z,13.97
2019-02-07T03:41:05.548Z,13.33
2019-02-07T03:43:42.174Z,13.77
2019-02-07T03:46:25.000Z,13.10
2019-02-07T03:48:57.739Z,14.30
2019-02-07T03:51:30.161Z,13.67
2019-02-07T03:54:06.112Z,14.00
2019-02-07T03:56:56.652Z,14.37
2019-02-07T03:59:46.105Z,14.40
2019-02-07T04:02:33.483Z,12.80
2019-02-07T04:05:09.567Z,13.43
2019-02-07T04:07:50.464Z,14.43
2019-02-07T04:10:36.145Z,14.60
2019-02-07T04:13:16.102Z,14.73
2019-02-07T04:16:14.735Z,15.27
2019-02-07T04:18:45.535Z,14.97
2019-02-07T04:21:23.620Z,15.17
2019-02-07T04:23:56.356Z,14.50
2019-02-07T04:26:28.952Z,15.53
2019-02-07T04:29:03.061Z,15.77
2019-02-07T04:31:40.494Z,16.00
2019-02-07T04:34:18.412Z,14.00
2019-02-07T04:37:04.948Z,14.60
2019-02-07T04:39:46.523Z,13.60
2019-02-07T04:42:21.329Z,14.33
2019-02-07T04:44:56.905Z,14.33
2019-02-07T04:47:38.274Z,12.70
2019-02-07T04:50:22.243Z,14.00
2019-02-07T04:53:08.824Z,12.97
2019-02-07T04:55:53.207Z,13.60
2019-02-07T04:58:26.577Z,13.37
2019-02-07T05:01:07.807Z,13.90
2019-02-07T05:03:47.405Z,12.77
2019-02-07T05:06:36.819Z,14.17
2019-02-07T05:09:30.634Z,13.47
2019-02-07T05:12:09.610Z,12.13
2019-02-07T05:14:58.119Z,12.70
2019-02-07T05:17:41.012Z,13.43
2019-02-07T05:20:22.960Z,13.10
2019-02-07T05:23:09.636Z,12.83
2019-02-07T05:25:56.171Z,13.40
2019-02-07T05:28:44.648Z,13.07
2019-02-07T05:31:21.301Z,13.53
2019-02-07T05:33:58.091Z,12.77
2019-02-07T05:36:35.680Z,12.43
2019-02-07T05:39:10.111Z,13.30
2019-02-07T05:41:46.207Z,13.57
2019-02-07T05:44:23.680Z,12.70
2019-02-07T05:46:56.499Z,12.50
2019-02-07T05:49:29.186Z,12.37
2019-02-07T05:52:01.981Z,13.73
2019-02-07T05:54:48.545Z,12.53
2019-02-07T05:57:25.392Z,12.83
2019-02-07T06:00:11.957Z,13.47
2019-02-07T06:02:48.912Z,11.93
2019-02-07T06:05:28.511Z,11.87
2019-02-07T06:08:01.279Z,12.23
2019-02-07T06:10:33.875Z,12.80
2019-02-07T06:13:06.517Z,12.33
2019-02-07T06:15:47.160Z,12.77
2019-02-07T06:18:19.811Z,12.07
2019-02-07T06:21:02.488Z,12.47
2019-02-07T06:23:41.889Z,13.67
2019-02-07T06:26:15.513Z,12.67
2019-02-07T06:28:57.655Z,12.33
2019-02-07T06:31:29.966Z,11.87
2019-02-07T06:34:02.719Z,12.90
2019-02-07T06:36:35.400Z,12.70
2019-02-07T06:39:19.320Z,11.70
2019-02-07T06:41:52.231Z,12.63
2019-02-07T06:44:35.224Z,11.97
2019-02-07T06:47:13.470Z,12.53
2019-02-07T06:49:56.776Z,12.40
2019-02-07T06:52:34.952Z,12.70
2019-02-07T06:55:17.961Z,11.30
2019-02-07T06:57:50.621Z,11.87
2019-02-07T07:00:28.249Z,11.60
2019-02-07T07:03:19.981Z,12.23
2019-02-07T07:05:59.529Z,11.03
2019-02-07T07:08:35.301Z,12.47
2019-02-07T07:11:12.456Z,12.37
2019-02-07T07:13:45.057Z,12.80
2019-02-07T07:16:26.438Z,11.67
2019-02-07T07:19:18.114Z,11.00
2019-02-07T07:24:43.409Z,11.33
2019-02-07T07:27:24.152Z,11.30
2019-02-07T07:30:11.581Z,11.53
2019-02-07T07:32:54.438Z,10.53
2019-02-07T07:35:36.448Z,10.60
2019-02-07T07:38:28.941Z,10.87
2019-02-07T07:41:01.728Z,11.00
2019-02-07T07:43:48.285Z,11.13
2019-02-07T07:46:29.643Z,10.40
2019-02-07T07:49:06.323Z,11.10
2019-02-07T07:51:39.212Z,11.20
2019-02-07T07:54:20.472Z,11.30
2019-02-07T07:57:01.475Z,9.50
2019-02-07T07:59:44.585Z,10.67
2019-02-07T08:02:25.174Z,10.27
2019-02-07T08:05:00.424Z,10.73
2019-02-07T08:07:37.516Z,10.70
2019-02-07T08:10:28.580Z,10.70
2019-02-07T08:13:16.004Z,10.23
2019-02-07T08:15:53.621Z,9.13
2019-02-07T08:18:31.741Z,9.77
2019-02-07T08:21:18.290Z,9.90
2019-02-07T08:23:50.946Z,9.07
2019-02-07T08:26:23.737Z,8.70
2019-02-07T08:29:00.387Z,9.80
2019-02-07T08:31:49.820Z,9.53
2019-02-07T08:34:34.635Z,8.30
2019-02-07T08:37:13.335Z,8.70
2019-02-07T08:42:50.876Z,9.10
2019-02-07T08:45:30.387Z,10.13
2019-02-07T08:48:08.317Z,13.07
2019-02-07T08:50:41.058Z,9.87
2019-02-07T08:53:29.669Z,9.67
2019-02-07T08:56:11.549Z,8.47
2019-02-07T08:58:54.076Z,9.07
2019-02-07T09:01:45.438Z,8.80
2019-02-07T09:04:25.347Z,8.57
2019-02-07T09:07:12.761Z,9.23
2019-02-07T09:09:47.504Z,8.67
2019-02-07T09:12:28.682Z,8.77
2019-02-07T09:15:17.039Z,8.60
2019-02-07T09:17:52.163Z,8.67
2019-02-07T09:20:32.340Z,8.40
2019-02-07T09:23:05.917Z,8.83
2019-02-07T09:25:56.502Z,8.47
2019-02-07T09:28:46.033Z,8.23
2019-02-07T09:31:37.668Z,9.60
2019-02-07T09:34:10.320Z,9.07
2019-02-07T09:36:44.607Z,8.17
2019-02-07T09:39:28.772Z,9.07
2019-02-07T09:42:19.264Z,8.63
2019-02-07T09:44:55.947Z,8.83
2019-02-07T09:47:43.522Z,9.50
2019-02-07T09:50:16.332Z,8.97
2019-02-07T09:52:51.628Z,8.63
2019-02-07T09:55:24.187Z,8.80
2019-02-07T09:58:02.010Z,8.90
2019-02-07T10:00:36.301Z,9.70
2019-02-07T10:03:22.799Z,8.97
2019-02-07T10:06:10.133Z,9.33
2019-02-07T10:08:42.885Z,8.93
2019-02-07T10:11:35.288Z,9.00
2019-02-07T10:14:26.800Z,8.67
2019-02-07T10:17:15.450Z,8.07
2019-02-07T10:19:56.965Z,9.60
2019-02-07T10:22:34.041Z,9.00
2019-02-07T10:25:26.643Z,8.80
2019-02-07T10:28:04.072Z,9.03
2019-02-07T10:30:50.655Z,9.00
2019-02-07T10:33:32.276Z,8.83
2019-02-07T10:36:23.672Z,8.20
2019-02-07T10:39:15.566Z,8.03
2019-02-07T10:41:53.350Z,8.03
2019-02-07T10:44:41.758Z,7.73
2019-02-07T10:47:21.440Z,8.87
2019-02-07T10:49:59.290Z,9.03
2019-02-07T10:52:40.281Z,8.80
2019-02-07T10:55:18.621Z,9.53
2019-02-07T10:57:59.122Z,9.03
2019-02-07T11:00:31.775Z,8.97
2019-02-07T11:03:22.362Z,10.47
2019-02-07T11:06:14.949Z,9.70
2019-02-07T11:08:59.896Z,10.40
2019-02-07T11:11:38.813Z,10.50
2019-02-07T11:14:21.539Z,10.90
2019-02-07T11:17:05.522Z,10.73
2019-02-07T11:19:46.989Z,10.67
2019-02-07T11:22:36.503Z,10.37
2019-02-07T11:25:10.480Z,9.87
2019-02-07T11:27:43.304Z,9.80
2019-02-07T11:30:23.027Z,10.60
2019-02-07T11:33:04.091Z,11.93
2019-02-07T11:35:36.729Z,10.83
2019-02-07T11:38:24.046Z,9.73
2019-02-07T11:41:12.902Z,9.53
2019-02-07T11:44:02.408Z,9.93
2019-02-07T11:46:43.509Z,9.63
2019-02-07T11:49:18.122Z,9.70
2019-02-07T11:51:50.983Z,10.37
2019-02-07T11:54:31.680Z,10.03
2019-02-07T11:57:21.045Z,10.57
2019-02-07T12:00:10.393Z,10.73
2019-02-07T12:02:56.849Z,12.10
2019-02-07T12:05:33.814Z,11.03
2019-02-07T12:08:16.028Z,10.67
2019-02-07T12:10:58.834Z,11.00
2019-02-07T12:13:37.683Z,9.73
2019-02-07T12:16:24.232Z,9.67
2019-02-07T12:19:18.089Z,11.03
2019-02-07T12:21:58.852Z,10.30
2019-02-07T12:24:48.276Z,10.63
2019-02-07T12:27:30.918Z,11.43
2019-02-07T12:30:07.189Z,10.30
2019-02-07T12:32:39.660Z,9.87
2019-02-07T12:35:21.921Z,10.27
2019-02-07T12:37:59.977Z,10.67
2019-02-07T12:40:32.721Z,10.17
2019-02-07T12:43:20.576Z,10.17
2019-02-07T12:45:53.372Z,12.20
2019-02-07T12:48:35.181Z,10.43
2019-02-07T12:51:20.044Z,10.17
2019-02-07T12:54:09.621Z,9.33
2019-02-07T12:56:57.147Z,9.87
2019-02-07T12:59:39.045Z,10.13
2019-02-07T13:02:28.436Z,10.10
2019-02-07T13:05:20.831Z,9.10
2019-02-07T13:08:13.372Z,9.70
2019-02-07T13:10:53.792Z,9.67
2019-02-07T13:13:31.021Z,8.87
2019-02-07T13:16:11.471Z,10.30
2019-02-07T13:18:56.731Z,10.07
2019-02-07T13:21:44.114Z,10.20
2019-02-07T13:24:16.989Z,9.47
2019-02-07T13:26:49.701Z,9.23
2019-02-07T13:29:22.312Z,10.20
2019-02-07T13:32:12.737Z,9.83
2019-02-07T13:34:50.022Z,9.80
2019-02-07T13:37:26.966Z,9.87
2019-02-07T13:39:59.688Z,9.73
2019-02-07T13:42:49.071Z,9.60
2019-02-07T13:45:39.145Z,10.77
2019-02-07T13:48:29.604Z,9.87
2019-02-07T13:51:15.308Z,10.50
2019-02-07T13:53:47.929Z,10.60
2019-02-07T13:56:35.518Z,10.37
2019-02-07T13:59:08.388Z,10.07
2019-02-07T14:01:54.952Z,10.10
2019-02-07T14:04:35.879Z,10.47
2019-02-07T14:07:25.258Z,10.43
2019-02-07T14:10:03.248Z,11.33
2019-02-07T14:12:35.892Z,10.13
2019-02-07T14:15:24.529Z,10.60
2019-02-07T14:18:04.087Z,9.30
2019-02-07T14:20:45.214Z,9.13
2019-02-07T14:23:25.500Z,8.57
2019-02-07T14:26:07.266Z,8.73
2019-02-07T14:28:47.345Z,8.53
2019-02-07T14:31:30.334Z,7.83
2019-02-07T14:34:16.896Z,7.27
2019-02-07T14:37:00.803Z,6.77
2019-02-07T14:39:44.452Z,7.40
2019-02-07T14:42:31.003Z,6.40
2019-02-07T14:45:13.684Z,6.93
2019-02-07T14:47:41.403Z,7.37
2019-02-07T14:50:14.832Z,7.13
2019-02-07T14:52:35.416Z,7.77
2019-02-07T14:55:02.335Z,7.40
2019-02-07T14:57:29.279Z,7.23
2019-02-07T14:59:56.224Z,7.90
2019-02-07T15:02:23.161Z,7.80
2019-02-07T15:04:50.098Z,7.83
2019-02-07T15:07:17.075Z,7.13
2019-02-07T15:09:44.049Z,7.30
2019-02-07T15:12:10.971Z,7.47
2019-02-07T15:14:37.920Z,7.13
2019-02-07T15:17:04.843Z,7.40
2019-02-07T15:19:31.785Z,7.03
2019-02-07T15:21:58.736Z,7.53
2019-02-07T15:24:25.678Z,10.00
2019-02-07T15:26:52.626Z,9.60
2019-02-07T15:29:19.580Z,7.53
2019-02-07T15:31:46.520Z,7.37
2019-02-07T15:34:13.456Z,8.60
2019-02-07T15:36:42.534Z,8.00
2019-02-07T15:39:09.460Z,8.20
2019-02-07T15:41:36.656Z,7.83
2019-02-07T15:44:03.627Z,7.83
2019-02-07T15:46:30.565Z,8.20
2019-02-07T15:48:58.839Z,8.20
2019-02-07T15:51:25.813Z,7.87
2019-02-07T15:53:52.744Z,8.30
2019-02-07T15:56:19.685Z,8.60
2019-02-07T15:59:07.118Z,8.10
2019-02-07T16:01:39.041Z,8.37
2019-02-07T16:04:24.588Z,8.47
2019-02-07T16:06:51.531Z,8.60
2019-02-07T16:09:18.464Z,8.77
2019-02-07T16:11:45.444Z,9.13
2019-02-07T16:14:12.360Z,8.87
2019-02-07T16:16:39.298Z,9.17
2019-02-07T16:19:06.257Z,8.77
2019-02-07T16:21:33.185Z,8.30
2019-02-07T16:24:00.148Z,8.83
2019-02-07T16:26:27.116Z,9.73
2019-02-07T16:28:54.064Z,10.73
2019-02-07T16:31:20.991Z,10.67
2019-02-07T16:33:47.940Z,10.87
2019-02-07T16:36:14.875Z,11.67
2019-02-07T16:38:41.807Z,10.77
2019-02-07T16:41:10.499Z,9.60
2019-02-07T16:43:35.685Z,10.00
2019-02-07T16:46:02.656Z,10.00
2019-02-07T16:48:29.617Z,9.80
2019-02-07T16:51:00.225Z,10.13
2019-02-07T16:53:23.672Z,10.63
2019-02-07T16:55:50.600Z,11.40
2019-02-07T16:58:17.531Z,9.57
2019-02-07T17:00:44.499Z,9.67
2019-02-07T17:03:11.456Z,9.27
2019-02-07T17:05:38.389Z,9.00
2019-02-07T17:08:05.321Z,8.63
2019-02-07T17:10:32.337Z,8.73
2019-02-07T17:12:59.265Z,8.63
2019-02-07T17:15:26.208Z,8.60
2019-02-07T17:17:53.182Z,7.77
2019-02-07T17:20:22.539Z,8.17
2019-02-07T17:22:49.461Z,7.27
2019-02-07T17:25:16.408Z,7.20
2019-02-07T17:27:43.357Z,7.40
2019-02-07T17:30:12.691Z,7.33
2019-02-07T17:32:39.629Z,8.50
2019-02-07T17:35:06.638Z,7.70
2019-02-07T17:37:33.572Z,8.10
2019-02-07T17:40:00.615Z,7.77
2019-02-07T17:42:27.535Z,8.10
2019-02-07T17:44:54.395Z,8.60
2019-02-07T17:47:21.346Z,7.90
2019-02-07T17:49:48.272Z,8.10
2019-02-07T17:52:15.650Z,8.77
2019-02-07T17:54:42.591Z,7.20
2019-02-07T17:57:09.528Z,8.13
2019-02-07T17:59:36.484Z,7.03
2019-02-07T18:02:03.828Z,7.60
2019-02-07T18:04:30.751Z,7.77
2019-02-07T18:06:57.684Z,7.33
2019-02-07T18:09:24.617Z,6.50
2019-02-07T18:11:51.548Z,7.97
2019-02-07T18:14:18.481Z,6.77
2019-02-07T18:16:45.420Z,7.07
2019-02-07T18:19:12.381Z,7.03
2019-02-07T18:21:39.326Z,6.00
2019-02-07T18:24:06.284Z,5.87
2019-02-07T18:26:33.238Z,6.60
2019-02-07T18:29:00.208Z,6.93
2019-02-07T18:31:27.155Z,7.20
2019-02-07T18:33:54.140Z,7.47
2019-02-07T18:36:21.113Z,5.47
2019-02-07T18:38:48.096Z,6.27
2019-02-07T18:41:15.109Z,10.07
2019-02-07T18:43:42.064Z,9.20
2019-02-07T18:46:09.046Z,7.47
2019-02-07T18:48:35.971Z,6.90
2019-02-07T18:51:02.913Z,6.53
2019-02-07T18:53:31.365Z,6.47
2019-02-07T18:55:58.313Z,5.83
2019-02-07T18:58:25.312Z,6.40
2019-02-07T19:00:52.487Z,6.40
2019-02-07T19:03:19.437Z,6.83
2019-02-07T19:05:46.384Z,7.00
2019-02-07T19:08:13.445Z,6.40
2019-02-07T19:10:40.276Z,9.53
2019-02-07T19:13:07.208Z,10.97
2019-02-07T19:15:37.911Z,8.13
2019-02-07T19:18:04.933Z,7.00
2019-02-07T19:20:31.864Z,6.47
2019-02-07T19:22:58.841Z,7.00
2019-02-07T19:25:25.781Z,6.33
2019-02-07T19:27:52.728Z,6.83
2019-02-07T19:30:23.609Z,6.63
2019-02-07T19:32:50.546Z,7.50
2019-02-07T19:35:17.481Z,7.77
2019-02-07T19:37:44.424Z,7.47
2019-02-07T19:40:11.508Z,10.50
2019-02-07T19:42:38.439Z,8.87
2019-02-07T19:45:06.495Z,8.73
2019-02-07T19:50:26.829Z,12.93
2019-02-07T19:52:53.749Z,12.47
2019-02-07T19:55:22.731Z,12.03
2019-02-07T19:57:49.719Z,8.40
2019-02-07T20:00:19.196Z,6.77
2019-02-07T20:02:46.133Z,6.80
2019-02-07T20:05:13.131Z,5.73
2019-02-07T20:07:40.091Z,6.70
2019-02-07T20:10:09.639Z,6.87
2019-02-07T20:12:36.597Z,6.87
2019-02-07T20:15:06.557Z,6.67
2019-02-07T20:17:33.503Z,6.97
2019-02-07T20:20:00.460Z,7.93
2019-02-07T20:22:27.477Z,7.27
2019-02-07T20:24:54.420Z,7.07
2019-02-07T20:27:21.364Z,7.37
2019-02-07T20:29:48.303Z,7.20
2019-02-07T20:32:15.233Z,7.00
2019-02-07T20:34:42.194Z,7.60
2019-02-07T20:37:09.241Z,7.43
2019-02-07T20:39:36.205Z,6.57
2019-02-07T20:42:03.209Z,7.07
2019-02-07T20:44:30.156Z,7.77
2019-02-07T20:46:57.099Z,6.20
2019-02-07T20:49:24.075Z,5.73
2019-02-07T20:51:51.662Z,5.57
2019-02-07T20:54:18.722Z,4.77
2019-02-07T20:56:45.678Z,4.70
2019-02-07T20:59:12.621Z,4.40
2019-02-07T21:01:39.556Z,4.20
2019-02-07T21:04:06.515Z,3.93
2019-02-07T21:06:33.448Z,4.17
2019-02-07T21:09:00.828Z,3.73
2019-02-07T21:11:27.773Z,3.60
2019-02-07T21:13:54.716Z,4.17
2019-02-07T21:16:21.648Z,4.10
2019-02-07T21:18:48.611Z,3.67
2019-02-07T21:21:15.585Z,3.80
2019-02-07T21:23:42.527Z,3.87
2019-02-07T21:26:09.521Z,3.90
2019-02-07T21:28:36.468Z,3.80
2019-02-07T21:31:03.423Z,3.87
2019-02-07T21:33:30.378Z,3.80
2019-02-07T21:35:57.308Z,3.80
2019-02-07T21:38:24.249Z,3.90
2019-02-07T21:40:51.214Z,3.40
2019-02-07T21:43:18.153Z,3.43
2019-02-07T21:45:45.072Z,3.37
2019-02-07T21:48:12.084Z,2.90
2019-02-07T21:50:39.041Z,3.10
2019-02-07T21:53:07.584Z,2.93
2019-02-07T21:55:34.707Z,3.30
2019-02-07T21:58:01.651Z,2.90
2019-02-07T22:00:31.190Z,2.90
2019-02-07T22:02:58.154Z,2.80
2019-02-07T22:05:25.501Z,2.53
2019-02-07T22:07:52.427Z,2.80
2019-02-07T22:10:19.383Z,3.10
2019-02-07T22:12:46.315Z,2.70
2019-02-07T22:15:15.844Z,3.53
2019-02-07T22:17:42.823Z,3.27
2019-02-07T22:20:13.529Z,3.30
2019-02-07T22:22:40.575Z,3.93
2019-02-07T22:25:07.551Z,3.77
2019-02-07T22:27:34.975Z,3.43
2019-02-07T22:30:01.944Z,3.40
2019-02-07T22:32:28.903Z,3.70
2019-02-07T22:34:55.848Z,3.80
2019-02-07T22:37:22.792Z,3.27
2019-02-07T22:39:49.747Z,3.60
2019-02-07T22:42:16.707Z,3.83
2019-02-07T22:44:43.648Z,3.87
2019-02-07T22:47:10.627Z,3.70
2019-02-07T22:49:37.576Z,3.93
2019-02-07T22:52:04.523Z,3.57
2019-02-07T22:54:31.929Z,3.83
2019-02-07T22:56:58.872Z,3.47
2019-02-07T22:59:25.941Z,4.03
2019-02-07T23:01:54.637Z,3.77
2019-02-07T23:04:22.888Z,3.57
2019-02-07T23:06:49.841Z,4.07
2019-02-07T23:09:18.132Z,3.90
2019-02-07T23:11:45.067Z,4.80
2019-02-07T23:14:12.009Z,4.57
2019-02-07T23:16:38.968Z,4.50
2019-02-07T23:19:05.907Z,4.20
2019-02-07T23:21:32.848Z,4.47
2019-02-07T23:23:59.822Z,5.50
2019-02-07T23:26:26.753Z,4.00
2019-02-07T23:28:53.689Z,4.77
2019-02-07T23:31:20.658Z,5.03
2019-02-07T23:33:47.585Z,4.50
2019-02-07T23:36:14.518Z,4.53
2019-02-07T23:38:41.476Z,4.40
2019-02-07T23:41:09.370Z,4.30
2019-02-07T23:43:36.816Z,3.97
2019-02-07T23:46:03.988Z,4.40
2019-02-07T23:48:30.909Z,4.20
2019-02-07T23:50:57.840Z,3.80
2019-02-07T23:53:24.812Z,3.50
2019-02-07T23:55:52.252Z,3.80
2019-02-07T23:58:19.207Z,3.40
